createdAt,value
2016-08-19T00:00:19.910Z,15.4
2016-08-19T00:00:44.064Z,15.4
2016-08-19T00:01:08.186Z,15.3
2016-08-19T00:01:32.312Z,15.3
2016-08-19T00:01:56.415Z,15.3
2016-08-19T00:02:20.546Z,15.3
2016-08-19T00:02:44.647Z,15.4
2016-08-19T00:03:08.754Z,15.4
2016-08-19T00:03:32.861Z,15.3
2016-08-19T00:03:56.996Z,15.3
2016-08-19T00:04:21.130Z,15.3
2016-08-19T00:04:45.254Z,15.4
2016-08-19T00:05:09.346Z,15.4
2016-08-19T00:05:33.495Z,15.3
2016-08-19T00:05:57.617Z,15.3
2016-08-19T00:06:21.726Z,15.3
2016-08-19T00:06:45.841Z,15.3
2016-08-19T00:07:09.955Z,15.3
2016-08-19T00:07:34.075Z,15.3
2016-08-19T00:07:58.212Z,15.4
2016-08-19T00:08:22.323Z,15.3
2016-08-19T00:08:46.463Z,15.3
2016-08-19T00:09:10.565Z,15.3
2016-08-19T00:09:34.700Z,15.3
2016-08-19T00:09:58.835Z,15.3
2016-08-19T00:10:22.980Z,15.3
2016-08-19T00:10:47.113Z,15.4
2016-08-19T00:11:11.239Z,15.3
2016-08-19T00:11:35.358Z,15.2
2016-08-19T00:11:59.472Z,15.3
2016-08-19T00:12:23.641Z,15.3
2016-08-19T00:12:47.767Z,15.3
2016-08-19T00:13:11.892Z,15.3
2016-08-19T00:13:36.040Z,15.3
2016-08-19T00:14:00.169Z,15.3
2016-08-19T00:14:24.295Z,15.3
2016-08-19T00:14:48.420Z,15.3
2016-08-19T00:15:12.569Z,15.3
2016-08-19T00:15:36.702Z,15.3
2016-08-19T00:16:00.863Z,15.4
2016-08-19T00:16:24.995Z,15.3
2016-08-19T00:16:49.097Z,15.3
2016-08-19T00:17:13.197Z,15.3
2016-08-19T00:17:37.316Z,15.2
2016-08-19T00:18:01.409Z,15.3
2016-08-19T00:18:25.555Z,15.2
2016-08-19T00:18:49.685Z,15.3
2016-08-19T00:19:13.810Z,15.3
2016-08-19T00:19:37.934Z,15.3
2016-08-19T00:20:02.042Z,15.3
2016-08-19T00:20:26.265Z,15.2
2016-08-19T00:20:50.377Z,15.2
2016-08-19T00:21:14.496Z,15.1
2016-08-19T00:21:38.621Z,15.2
2016-08-19T00:22:02.738Z,15.3
2016-08-19T00:22:26.887Z,15.3
2016-08-19T00:22:51.018Z,15.3
2016-08-19T00:23:15.110Z,15.2
2016-08-19T00:23:39.250Z,15.3
2016-08-19T00:24:03.373Z,15.1
2016-08-19T00:24:27.514Z,15.2
2016-08-19T00:24:51.640Z,15.2
2016-08-19T00:25:15.778Z,15.2
2016-08-19T00:25:39.891Z,15.2
2016-08-19T00:26:04.019Z,15.2
2016-08-19T00:26:28.136Z,15.2
2016-08-19T00:26:52.237Z,15.2
2016-08-19T00:27:16.405Z,15.3
2016-08-19T00:27:40.517Z,15.2
2016-08-19T00:28:04.642Z,15.1
2016-08-19T00:28:28.749Z,15.1
2016-08-19T00:28:52.924Z,15.1
2016-08-19T00:29:17.048Z,15.1
2016-08-19T00:29:41.156Z,15.1
2016-08-19T00:30:05.282Z,15.1
2016-08-19T00:30:29.439Z,15.2
2016-08-19T00:30:53.570Z,15.1
2016-08-19T00:31:17.717Z,15.2
2016-08-19T00:31:41.830Z,15.1
2016-08-19T00:32:05.959Z,15.1
2016-08-19T00:32:30.058Z,15.2
2016-08-19T00:32:54.182Z,15.1
2016-08-19T00:33:18.310Z,15.1
2016-08-19T00:33:42.411Z,15.1
2016-08-19T00:34:06.537Z,15.1
2016-08-19T00:34:30.684Z,15.1
2016-08-19T00:34:54.809Z,15.1
2016-08-19T00:35:18.899Z,15.1
2016-08-19T00:35:43.035Z,15.1
2016-08-19T00:36:07.156Z,15
2016-08-19T00:36:31.297Z,15
2016-08-19T00:36:55.398Z,15
2016-08-19T00:37:19.488Z,15
2016-08-19T00:37:43.642Z,15
2016-08-19T00:38:07.767Z,15
2016-08-19T00:38:31.873Z,15
2016-08-19T00:38:55.995Z,15
2016-08-19T00:39:20.125Z,15
2016-08-19T00:39:44.250Z,14.9
2016-08-19T00:40:08.394Z,15
2016-08-19T00:40:32.507Z,15
2016-08-19T00:40:56.626Z,14.9
2016-08-19T00:41:20.748Z,15.1
2016-08-19T00:41:44.851Z,15
2016-08-19T00:42:08.981Z,15
2016-08-19T00:42:33.114Z,15.1
2016-08-19T00:42:57.238Z,15
2016-08-19T00:43:21.379Z,15
2016-08-19T00:43:45.456Z,15.1
2016-08-19T00:44:09.554Z,15
2016-08-19T00:44:33.666Z,15
2016-08-19T00:44:57.791Z,15.1
2016-08-19T00:45:21.904Z,15
2016-08-19T00:45:46.009Z,15.1
2016-08-19T00:46:10.117Z,15
2016-08-19T00:46:34.244Z,15
2016-08-19T00:46:58.371Z,14.9
2016-08-19T00:47:22.490Z,15
2016-08-19T00:47:46.663Z,15
2016-08-19T00:48:10.852Z,14.9
2016-08-19T00:48:35.011Z,15
2016-08-19T00:48:59.102Z,14.9
2016-08-19T00:49:23.272Z,14.9
2016-08-19T00:49:47.412Z,14.9
2016-08-19T00:50:11.521Z,14.9
2016-08-19T00:50:35.605Z,14.8
2016-08-19T00:50:59.738Z,14.9
2016-08-19T00:51:23.910Z,14.9
2016-08-19T00:51:48.064Z,14.9
2016-08-19T00:52:12.178Z,14.9
2016-08-19T00:52:36.329Z,14.8
2016-08-19T00:53:00.465Z,14.9
2016-08-19T00:53:24.610Z,15
2016-08-19T00:53:48.723Z,14.8
2016-08-19T00:54:12.890Z,14.9
2016-08-19T00:54:37.015Z,14.9
2016-08-19T00:55:01.181Z,14.8
2016-08-19T00:55:25.304Z,14.8
2016-08-19T00:55:49.398Z,14.9
2016-08-19T00:56:13.498Z,14.8
2016-08-19T00:56:37.653Z,14.7
2016-08-19T00:57:01.776Z,14.8
2016-08-19T00:57:25.880Z,14.8
2016-08-19T00:57:49.988Z,14.8
2016-08-19T00:58:14.101Z,14.8
2016-08-19T00:58:38.210Z,14.7
2016-08-19T00:59:02.347Z,14.7
2016-08-19T00:59:26.445Z,14.7
2016-08-19T00:59:50.569Z,14.7
2016-08-19T01:00:14.742Z,14.8
2016-08-19T01:00:38.891Z,14.8
2016-08-19T01:01:02.986Z,14.7
2016-08-19T01:01:27.094Z,14.8
2016-08-19T01:01:51.227Z,14.7
2016-08-19T01:02:15.363Z,14.8
2016-08-19T01:02:39.471Z,14.8
2016-08-19T01:03:03.625Z,14.8
2016-08-19T01:03:27.768Z,14.8
2016-08-19T01:03:51.905Z,14.8
2016-08-19T01:04:16.003Z,14.8
2016-08-19T01:04:40.114Z,14.8
2016-08-19T01:05:04.227Z,14.8
2016-08-19T01:05:28.351Z,14.9
2016-08-19T01:05:52.485Z,14.8
2016-08-19T01:06:16.598Z,14.8
2016-08-19T01:06:40.717Z,14.7
2016-08-19T01:07:04.816Z,14.7
2016-08-19T01:07:28.924Z,14.8
2016-08-19T01:07:53.044Z,14.7
2016-08-19T01:08:17.165Z,14.7
2016-08-19T01:08:41.292Z,14.8
2016-08-19T01:09:05.413Z,14.7
2016-08-19T01:09:29.526Z,14.8
2016-08-19T01:09:53.639Z,14.7
2016-08-19T01:10:17.763Z,14.6
2016-08-19T01:10:41.901Z,14.8
2016-08-19T01:11:06.007Z,14.6
2016-08-19T01:11:30.114Z,14.7
2016-08-19T01:11:54.226Z,14.7
2016-08-19T01:12:18.346Z,14.6
2016-08-19T01:12:42.479Z,14.6
2016-08-19T01:13:06.578Z,14.7
2016-08-19T01:13:30.722Z,14.7
2016-08-19T01:13:54.916Z,14.7
2016-08-19T01:14:19.060Z,14.7
2016-08-19T01:14:43.213Z,14.7
2016-08-19T01:15:07.309Z,14.7
2016-08-19T01:15:31.489Z,14.6
2016-08-19T01:15:55.607Z,14.6
2016-08-19T01:16:19.702Z,14.7
2016-08-19T01:16:43.856Z,14.7
2016-08-19T01:17:08.014Z,14.7
2016-08-19T01:17:32.139Z,14.7
2016-08-19T01:17:56.255Z,14.6
2016-08-19T01:18:20.366Z,14.7
2016-08-19T01:18:44.465Z,14.6
2016-08-19T01:19:08.658Z,14.6
2016-08-19T01:19:32.770Z,14.6
2016-08-19T01:19:56.891Z,14.6
2016-08-19T01:20:21.041Z,14.6
2016-08-19T01:20:45.169Z,14.6
2016-08-19T01:21:09.306Z,14.6
2016-08-19T01:21:33.442Z,14.5
2016-08-19T01:22:00.437Z,14.6
2016-08-19T01:22:24.551Z,14.5
2016-08-19T01:22:48.651Z,14.5
2016-08-19T01:23:12.764Z,14.6
2016-08-19T01:23:36.903Z,14.6
2016-08-19T01:24:01.027Z,14.6
2016-08-19T01:24:25.168Z,14.5
2016-08-19T01:24:49.291Z,14.6
2016-08-19T01:25:13.406Z,14.6
2016-08-19T01:25:37.558Z,14.5
2016-08-19T01:26:01.735Z,14.5
2016-08-19T01:26:25.904Z,14.5
2016-08-19T01:26:50.022Z,14.5
2016-08-19T01:27:14.150Z,14.5
2016-08-19T01:27:38.285Z,14.5
2016-08-19T01:28:02.393Z,14.6
2016-08-19T01:28:26.514Z,14.5
2016-08-19T01:28:50.647Z,14.5
2016-08-19T01:29:14.756Z,14.5
2016-08-19T01:29:38.879Z,14.4
2016-08-19T01:30:03.015Z,14.5
2016-08-19T01:30:27.140Z,14.4
2016-08-19T01:30:51.280Z,14.5
2016-08-19T01:31:15.399Z,14.4
2016-08-19T01:31:39.526Z,14.4
2016-08-19T01:32:03.659Z,14.4
2016-08-19T01:32:27.781Z,14.4
2016-08-19T01:32:51.884Z,14.5
2016-08-19T01:33:16.007Z,14.4
2016-08-19T01:33:40.111Z,14.4
2016-08-19T01:34:04.236Z,14.3
2016-08-19T01:34:28.332Z,14.4
2016-08-19T01:34:52.448Z,14.4
2016-08-19T01:35:16.569Z,14.4
2016-08-19T01:35:40.682Z,14.4
2016-08-19T01:36:04.786Z,14.4
2016-08-19T01:36:28.952Z,14.4
2016-08-19T01:36:53.059Z,14.4
2016-08-19T01:37:17.198Z,14.4
2016-08-19T01:37:41.322Z,14.4
2016-08-19T01:38:05.448Z,14.4
2016-08-19T01:38:29.571Z,14.4
2016-08-19T01:38:53.674Z,14.3
2016-08-19T01:39:17.799Z,14.3
2016-08-19T01:39:41.905Z,14.4
2016-08-19T01:40:06.033Z,14.3
2016-08-19T01:40:30.158Z,14.4
2016-08-19T01:40:54.286Z,14.4
2016-08-19T01:41:18.405Z,14.4
2016-08-19T01:41:42.532Z,14.4
2016-08-19T01:42:06.683Z,14.3
2016-08-19T01:42:30.812Z,14.4
2016-08-19T01:42:54.933Z,14.3
2016-08-19T01:43:19.081Z,14.4
2016-08-19T01:43:43.192Z,14.4
2016-08-19T01:44:07.307Z,14.4
2016-08-19T01:44:31.434Z,14.4
2016-08-19T01:44:55.540Z,14.4
2016-08-19T01:45:19.727Z,14.4
2016-08-19T01:45:43.860Z,14.4
2016-08-19T01:46:07.959Z,14.4
2016-08-19T01:46:32.053Z,14.4
2016-08-19T01:46:56.195Z,14.4
2016-08-19T01:47:20.377Z,14.3
2016-08-19T01:47:44.498Z,14.3
2016-08-19T01:48:08.625Z,14.4
2016-08-19T01:48:32.757Z,14.4
2016-08-19T01:48:56.863Z,14.4
2016-08-19T01:49:20.970Z,14.4
2016-08-19T01:49:45.086Z,14.3
2016-08-19T01:50:09.212Z,14.4
2016-08-19T01:50:33.390Z,14.4
2016-08-19T01:50:57.552Z,14.3
2016-08-19T01:51:21.686Z,14.4
2016-08-19T01:51:45.806Z,14.3
2016-08-19T01:52:09.919Z,14.3
2016-08-19T01:52:34.028Z,14.3
2016-08-19T01:52:58.139Z,14.3
2016-08-19T01:53:22.247Z,14.2
2016-08-19T01:53:46.390Z,14.3
2016-08-19T01:54:10.540Z,14.2
2016-08-19T01:54:34.671Z,14.3
2016-08-19T01:54:58.784Z,14.2
2016-08-19T01:55:22.895Z,14.2
2016-08-19T01:55:47.038Z,14.3
2016-08-19T01:56:11.140Z,14.3
2016-08-19T01:56:35.253Z,14.3
2016-08-19T01:56:59.356Z,14.3
2016-08-19T01:57:23.464Z,14.2
2016-08-19T01:57:47.574Z,14.3
2016-08-19T01:58:11.720Z,14.4
2016-08-19T01:58:35.840Z,14.3
2016-08-19T01:58:59.963Z,14.2
2016-08-19T01:59:24.093Z,14.3
2016-08-19T01:59:48.262Z,14.3
2016-08-19T02:00:12.401Z,14.3
2016-08-19T02:00:36.522Z,14.2
2016-08-19T02:01:00.625Z,14.3
2016-08-19T02:01:24.767Z,14.3
2016-08-19T02:01:48.899Z,14.3
2016-08-19T02:02:13.041Z,14.3
2016-08-19T02:02:37.166Z,14.4
2016-08-19T02:03:01.278Z,14.2
2016-08-19T02:03:25.395Z,14.3
2016-08-19T02:03:49.506Z,14.4
2016-08-19T02:04:13.622Z,14.3
2016-08-19T02:04:37.752Z,14.3
2016-08-19T02:05:01.863Z,14.3
2016-08-19T02:05:25.981Z,14.3
2016-08-19T02:05:50.110Z,14.3
2016-08-19T02:06:14.206Z,14.4
2016-08-19T02:06:38.373Z,14.3
2016-08-19T02:07:02.499Z,14.3
2016-08-19T02:07:26.617Z,14.3
2016-08-19T02:07:50.775Z,14.3
2016-08-19T02:08:14.934Z,14.2
2016-08-19T02:08:39.066Z,14.3
2016-08-19T02:09:03.187Z,14.2
2016-08-19T02:09:27.331Z,14.3
2016-08-19T02:09:51.497Z,14.3
2016-08-19T02:10:15.625Z,14.3
2016-08-19T02:10:39.728Z,14.3
2016-08-19T02:11:03.877Z,14.2
2016-08-19T02:11:27.998Z,14.3
2016-08-19T02:11:52.130Z,14.2
2016-08-19T02:12:16.234Z,14.3
2016-08-19T02:12:40.345Z,14.2
2016-08-19T02:13:04.467Z,14.2
2016-08-19T02:13:28.588Z,14.2
2016-08-19T02:13:52.692Z,14.2
2016-08-19T02:14:16.846Z,14.3
2016-08-19T02:14:40.974Z,14.3
2016-08-19T02:15:05.092Z,14.2
2016-08-19T02:15:29.219Z,14.3
2016-08-19T02:15:53.320Z,14.2
2016-08-19T02:16:17.472Z,14.2
2016-08-19T02:16:41.606Z,14.2
2016-08-19T02:17:05.721Z,14.2
2016-08-19T02:17:29.821Z,14.2
2016-08-19T02:17:53.937Z,14.2
2016-08-19T02:18:18.093Z,14.2
2016-08-19T02:18:42.221Z,14.2
2016-08-19T02:19:06.317Z,14.2
2016-08-19T02:19:30.476Z,14.2
2016-08-19T02:19:54.623Z,14.2
2016-08-19T02:20:18.795Z,14.2
2016-08-19T02:20:42.894Z,14.2
2016-08-19T02:21:07.032Z,14.2
2016-08-19T02:21:31.139Z,14.2
2016-08-19T02:21:55.294Z,14.2
2016-08-19T02:22:19.405Z,14.2
2016-08-19T02:22:43.572Z,14.2
2016-08-19T02:23:07.722Z,14.2
2016-08-19T02:23:31.856Z,14.2
2016-08-19T02:23:55.955Z,14.2
2016-08-19T02:24:20.051Z,14.1
2016-08-19T02:24:44.205Z,14.2
2016-08-19T02:25:08.372Z,14.2
2016-08-19T02:25:32.546Z,14.2
2016-08-19T02:25:56.644Z,14.2
2016-08-19T02:26:20.787Z,14.2
2016-08-19T02:26:44.977Z,14.2
2016-08-19T02:27:09.134Z,14.2
2016-08-19T02:27:33.254Z,14.2
2016-08-19T02:27:57.357Z,14.2
2016-08-19T02:28:21.477Z,14.1
2016-08-19T02:28:45.600Z,14.1
2016-08-19T02:29:09.748Z,14.1
2016-08-19T02:29:33.875Z,14.2
2016-08-19T02:29:58.000Z,14.2
2016-08-19T02:30:22.161Z,14.1
2016-08-19T02:30:46.273Z,14.2
2016-08-19T02:31:10.412Z,14.2
2016-08-19T02:31:34.519Z,14.2
2016-08-19T02:31:58.651Z,14.2
2016-08-19T02:32:22.772Z,14.2
2016-08-19T02:32:46.890Z,14.1
2016-08-19T02:33:11.007Z,14.1
2016-08-19T02:33:35.160Z,14.1
2016-08-19T02:33:59.275Z,14.1
2016-08-19T02:34:23.387Z,14.1
2016-08-19T02:34:47.550Z,14.1
2016-08-19T02:35:11.666Z,14.1
2016-08-19T02:35:35.816Z,14
2016-08-19T02:36:00.013Z,14
2016-08-19T02:36:24.127Z,14
2016-08-19T02:36:48.281Z,14
2016-08-19T02:37:12.399Z,14
2016-08-19T02:37:36.566Z,14.1
2016-08-19T02:38:00.648Z,14
2016-08-19T02:38:24.788Z,14
2016-08-19T02:38:48.981Z,14.1
2016-08-19T02:39:13.109Z,14
2016-08-19T02:39:37.235Z,14
2016-08-19T02:40:01.383Z,14
2016-08-19T02:40:25.547Z,14.1
2016-08-19T02:40:49.703Z,14
2016-08-19T02:41:13.822Z,14.1
2016-08-19T02:41:37.978Z,14
2016-08-19T02:42:02.130Z,14
2016-08-19T02:42:26.278Z,14.1
2016-08-19T02:42:50.385Z,14
2016-08-19T02:43:14.504Z,14
2016-08-19T02:43:38.614Z,14.1
2016-08-19T02:44:02.745Z,14
2016-08-19T02:44:26.898Z,14.1
2016-08-19T02:44:51.012Z,14
2016-08-19T02:45:15.184Z,14
2016-08-19T02:45:39.296Z,14
2016-08-19T02:46:03.448Z,14
2016-08-19T02:46:27.545Z,14
2016-08-19T02:46:51.656Z,14
2016-08-19T02:47:15.819Z,14
2016-08-19T02:47:39.937Z,13.9
2016-08-19T02:48:04.105Z,13.8
2016-08-19T02:48:28.206Z,14.1
2016-08-19T02:48:52.337Z,14.1
2016-08-19T02:49:16.486Z,14
2016-08-19T02:49:40.598Z,13.9
2016-08-19T02:50:04.729Z,13.9
2016-08-19T02:50:28.904Z,13.9
2016-08-19T02:50:53.111Z,13.9
2016-08-19T02:51:17.250Z,14
2016-08-19T02:51:41.368Z,13.9
2016-08-19T02:52:05.483Z,14
2016-08-19T02:52:29.631Z,13.9
2016-08-19T02:52:53.841Z,13.9
2016-08-19T02:53:18.019Z,13.9
2016-08-19T02:53:42.128Z,13.9
2016-08-19T02:54:06.260Z,13.9
2016-08-19T02:54:30.445Z,13.8
2016-08-19T02:54:54.546Z,13.9
2016-08-19T02:55:18.718Z,13.8
2016-08-19T02:55:42.897Z,13.9
2016-08-19T02:56:07.020Z,13.8
2016-08-19T02:56:31.136Z,13.9
2016-08-19T02:56:55.257Z,13.9
2016-08-19T02:57:19.396Z,13.9
2016-08-19T02:57:43.793Z,13.9
2016-08-19T02:58:07.947Z,13.8
2016-08-19T02:58:32.091Z,13.9
2016-08-19T02:58:56.235Z,13.8
2016-08-19T02:59:20.359Z,13.8
2016-08-19T02:59:44.526Z,13.9
2016-08-19T03:00:08.625Z,13.8
2016-08-19T03:00:32.753Z,13.8
2016-08-19T03:00:56.870Z,13.9
2016-08-19T03:01:20.985Z,13.9
2016-08-19T03:01:45.472Z,13.9
2016-08-19T03:02:09.601Z,13.9
2016-08-19T03:02:33.746Z,13.9
2016-08-19T03:02:57.884Z,13.9
2016-08-19T03:03:22.001Z,13.9
2016-08-19T03:03:46.106Z,13.8
2016-08-19T03:04:10.249Z,13.9
2016-08-19T03:04:34.378Z,13.9
2016-08-19T03:04:58.488Z,13.8
2016-08-19T03:05:22.599Z,13.8
2016-08-19T03:05:46.717Z,13.8
2016-08-19T03:06:10.833Z,13.9
2016-08-19T03:06:34.975Z,13.9
2016-08-19T03:06:59.131Z,13.9
2016-08-19T03:07:23.300Z,13.9
2016-08-19T03:07:47.419Z,14
2016-08-19T03:08:11.565Z,13.9
2016-08-19T03:08:35.682Z,13.8
2016-08-19T03:08:59.803Z,13.9
2016-08-19T03:09:23.929Z,13.9
2016-08-19T03:09:48.068Z,13.9
2016-08-19T03:10:12.171Z,13.8
2016-08-19T03:10:36.309Z,13.8
2016-08-19T03:11:00.466Z,13.9
2016-08-19T03:11:24.594Z,13.9
2016-08-19T03:11:48.762Z,13.9
2016-08-19T03:12:12.903Z,13.8
2016-08-19T03:12:37.022Z,13.8
2016-08-19T03:13:01.151Z,13.8
2016-08-19T03:13:25.280Z,13.8
2016-08-19T03:13:49.501Z,13.8
2016-08-19T03:14:13.645Z,13.8
2016-08-19T03:14:37.825Z,13.8
2016-08-19T03:15:01.937Z,13.8
2016-08-19T03:15:26.067Z,13.8
2016-08-19T03:15:50.196Z,13.8
2016-08-19T03:16:14.324Z,13.8
2016-08-19T03:16:38.436Z,13.8
2016-08-19T03:17:02.549Z,13.8
2016-08-19T03:17:26.666Z,13.8
2016-08-19T03:17:50.783Z,13.8
2016-08-19T03:18:14.886Z,13.8
2016-08-19T03:18:38.990Z,13.8
2016-08-19T03:19:03.106Z,13.9
2016-08-19T03:19:27.227Z,13.8
2016-08-19T03:19:51.314Z,13.8
2016-08-19T03:20:15.426Z,13.8
2016-08-19T03:20:39.561Z,13.8
2016-08-19T03:21:03.695Z,13.9
2016-08-19T03:21:27.814Z,13.8
2016-08-19T03:21:51.913Z,13.8
2016-08-19T03:22:16.053Z,13.8
2016-08-19T03:22:40.159Z,13.8
2016-08-19T03:23:04.277Z,13.8
2016-08-19T03:23:28.411Z,13.8
2016-08-19T03:23:52.529Z,13.8
2016-08-19T03:24:16.689Z,13.8
2016-08-19T03:24:40.815Z,13.8
2016-08-19T03:25:04.947Z,13.8
2016-08-19T03:25:29.081Z,13.8
2016-08-19T03:25:53.205Z,13.8
2016-08-19T03:26:17.353Z,13.8
2016-08-19T03:26:41.519Z,13.8
2016-08-19T03:27:05.658Z,13.8
2016-08-19T03:27:29.765Z,13.8
2016-08-19T03:27:53.884Z,13.8
2016-08-19T03:28:18.017Z,13.8
2016-08-19T03:28:42.148Z,13.8
2016-08-19T03:29:06.259Z,13.8
2016-08-19T03:29:30.383Z,13.8
2016-08-19T03:29:54.554Z,13.8
2016-08-19T03:30:18.699Z,13.8
2016-08-19T03:30:42.846Z,13.8
2016-08-19T03:31:06.950Z,13.8
2016-08-19T03:31:31.062Z,13.8
2016-08-19T03:31:55.187Z,13.8
2016-08-19T03:32:19.303Z,13.7
2016-08-19T03:32:43.406Z,13.7
2016-08-19T03:33:07.572Z,13.8
2016-08-19T03:33:31.721Z,13.7
2016-08-19T03:33:55.852Z,13.7
2016-08-19T03:34:19.960Z,13.7
2016-08-19T03:34:44.090Z,13.7
2016-08-19T03:35:08.246Z,13.7
2016-08-19T03:35:32.352Z,13.7
2016-08-19T03:35:56.447Z,13.7
2016-08-19T03:36:20.598Z,13.7
2016-08-19T03:36:44.752Z,13.7
2016-08-19T03:37:08.849Z,13.7
2016-08-19T03:37:32.972Z,13.7
2016-08-19T03:37:57.096Z,13.7
2016-08-19T03:38:21.213Z,13.7
2016-08-19T03:38:45.359Z,13.7
2016-08-19T03:39:09.462Z,13.7
2016-08-19T03:39:33.567Z,13.7
2016-08-19T03:39:57.719Z,13.7
2016-08-19T03:40:21.834Z,13.7
2016-08-19T03:40:45.994Z,13.6
2016-08-19T03:41:10.142Z,13.7
2016-08-19T03:41:34.307Z,13.7
2016-08-19T03:41:58.457Z,13.6
2016-08-19T03:42:22.598Z,13.7
2016-08-19T03:42:46.765Z,13.6
2016-08-19T03:43:10.908Z,13.6
2016-08-19T03:43:35.024Z,13.7
2016-08-19T03:43:59.178Z,13.6
2016-08-19T03:44:23.291Z,13.6
2016-08-19T03:44:47.528Z,13.6
2016-08-19T03:45:11.762Z,13.6
2016-08-19T03:45:35.863Z,13.5
2016-08-19T03:45:59.979Z,13.7
2016-08-19T03:46:24.078Z,13.7
2016-08-19T03:46:48.188Z,13.7
2016-08-19T03:47:12.323Z,13.7
2016-08-19T03:47:36.482Z,13.7
2016-08-19T03:48:00.606Z,13.6
2016-08-19T03:48:24.791Z,13.7
2016-08-19T03:48:48.899Z,13.6
2016-08-19T03:49:13.131Z,13.7
2016-08-19T03:49:37.284Z,13.7
2016-08-19T03:50:01.440Z,13.7
2016-08-19T03:50:25.661Z,13.6
2016-08-19T03:50:49.801Z,13.7
2016-08-19T03:51:13.926Z,13.7
2016-08-19T03:51:38.055Z,13.7
2016-08-19T03:52:02.189Z,13.6
2016-08-19T03:52:26.367Z,13.6
2016-08-19T03:52:50.485Z,13.6
2016-08-19T03:53:14.627Z,13.5
2016-08-19T03:53:38.850Z,13.6
2016-08-19T03:54:03.195Z,13.6
2016-08-19T03:54:27.492Z,13.6
2016-08-19T03:54:51.631Z,13.5
2016-08-19T03:55:15.761Z,13.6
2016-08-19T03:55:39.886Z,13.6
2016-08-19T03:56:04.002Z,13.6
2016-08-19T03:56:28.119Z,13.6
2016-08-19T03:56:52.226Z,13.6
2016-08-19T03:57:16.382Z,13.6
2016-08-19T03:57:40.517Z,13.6
2016-08-19T03:58:04.624Z,13.5
2016-08-19T03:58:28.785Z,13.5
2016-08-19T03:58:52.927Z,13.6
2016-08-19T03:59:17.094Z,13.5
2016-08-19T03:59:41.244Z,13.6
2016-08-19T04:00:05.363Z,13.5
2016-08-19T04:00:29.516Z,13.6
2016-08-19T04:00:53.637Z,13.6
2016-08-19T04:01:17.770Z,13.6
2016-08-19T04:01:41.897Z,13.6
2016-08-19T04:02:06.012Z,13.5
2016-08-19T04:02:30.132Z,13.6
2016-08-19T04:02:54.315Z,13.6
2016-08-19T04:03:18.439Z,13.6
2016-08-19T04:03:42.593Z,13.6
2016-08-19T04:04:06.796Z,13.6
2016-08-19T04:04:30.950Z,13.6
2016-08-19T04:04:55.155Z,13.6
2016-08-19T04:05:19.379Z,13.7
2016-08-19T04:05:43.563Z,13.6
2016-08-19T04:06:07.695Z,13.7
2016-08-19T04:06:31.841Z,13.6
2016-08-19T04:06:55.958Z,13.6
2016-08-19T04:07:20.111Z,13.6
2016-08-19T04:07:44.274Z,13.6
2016-08-19T04:08:08.435Z,13.6
2016-08-19T04:08:32.592Z,13.7
2016-08-19T04:08:56.724Z,13.6
2016-08-19T04:09:20.854Z,13.6
2016-08-19T04:09:45.006Z,13.7
2016-08-19T04:10:09.122Z,13.6
2016-08-19T04:10:33.257Z,13.7
2016-08-19T04:10:57.399Z,13.6
2016-08-19T04:11:21.537Z,13.6
2016-08-19T04:11:45.674Z,13.7
2016-08-19T04:12:09.851Z,13.7
2016-08-19T04:12:34.004Z,13.6
2016-08-19T04:12:58.116Z,13.7
2016-08-19T04:13:22.274Z,13.6
2016-08-19T04:13:46.439Z,13.6
2016-08-19T04:14:10.602Z,13.6
2016-08-19T04:14:34.719Z,13.7
2016-08-19T04:14:58.860Z,13.6
2016-08-19T04:15:22.996Z,13.6
2016-08-19T04:15:47.109Z,13.7
2016-08-19T04:16:11.289Z,13.7
2016-08-19T04:16:35.429Z,13.7
2016-08-19T04:16:59.569Z,13.7
2016-08-19T04:17:23.702Z,13.7
2016-08-19T04:17:47.851Z,13.6
2016-08-19T04:18:11.962Z,13.7
2016-08-19T04:18:36.084Z,13.7
2016-08-19T04:19:00.195Z,13.7
2016-08-19T04:19:24.315Z,13.7
2016-08-19T04:19:48.452Z,13.7
2016-08-19T04:20:12.588Z,13.7
2016-08-19T04:20:36.706Z,13.7
2016-08-19T04:21:00.813Z,13.7
2016-08-19T04:21:24.958Z,13.7
2016-08-19T04:21:49.099Z,13.7
2016-08-19T04:22:13.278Z,13.7
2016-08-19T04:22:37.395Z,13.7
2016-08-19T04:23:01.487Z,13.8
2016-08-19T04:23:25.611Z,13.7
2016-08-19T04:23:49.745Z,13.7
2016-08-19T04:24:13.876Z,13.7
2016-08-19T04:24:38.036Z,13.7
2016-08-19T04:25:02.171Z,13.7
2016-08-19T04:25:26.334Z,13.7
2016-08-19T04:25:50.455Z,13.7
2016-08-19T04:26:14.697Z,13.7
2016-08-19T04:26:38.831Z,13.8
2016-08-19T04:27:03.140Z,13.8
2016-08-19T04:27:27.275Z,13.8
2016-08-19T04:27:51.413Z,13.8
2016-08-19T04:28:15.668Z,13.8
2016-08-19T04:28:39.786Z,13.8
2016-08-19T04:29:03.876Z,13.8
2016-08-19T04:29:28.006Z,13.8
2016-08-19T04:29:52.132Z,13.8
2016-08-19T04:30:16.272Z,13.8
2016-08-19T04:30:40.365Z,13.8
2016-08-19T04:31:04.572Z,13.8
2016-08-19T04:31:28.732Z,13.7
2016-08-19T04:31:52.862Z,13.8
2016-08-19T04:32:16.962Z,13.8
2016-08-19T04:32:41.083Z,13.8
2016-08-19T04:33:05.204Z,13.9
2016-08-19T04:33:29.360Z,13.8
2016-08-19T04:33:53.505Z,13.8
2016-08-19T04:34:17.647Z,13.8
2016-08-19T04:34:41.761Z,13.9
2016-08-19T04:35:05.868Z,13.8
2016-08-19T04:35:29.964Z,13.9
2016-08-19T04:35:54.099Z,13.8
2016-08-19T04:36:18.230Z,13.9
2016-08-19T04:36:42.356Z,13.9
2016-08-19T04:37:06.513Z,14
2016-08-19T04:37:30.638Z,13.8
2016-08-19T04:37:54.829Z,13.9
2016-08-19T04:38:18.927Z,13.9
2016-08-19T04:38:43.076Z,13.9
2016-08-19T04:39:07.190Z,13.9
2016-08-19T04:39:31.311Z,13.9
2016-08-19T04:39:55.443Z,13.8
2016-08-19T04:40:19.587Z,13.9
2016-08-19T04:40:43.716Z,13.8
2016-08-19T04:41:07.834Z,13.9
2016-08-19T04:41:31.948Z,14
2016-08-19T04:41:56.133Z,13.9
2016-08-19T04:42:20.234Z,14
2016-08-19T04:42:44.369Z,13.9
2016-08-19T04:43:08.501Z,13.9
2016-08-19T04:43:32.631Z,13.9
2016-08-19T04:43:56.737Z,13.9
2016-08-19T04:44:20.959Z,14
2016-08-19T04:44:45.143Z,13.9
2016-08-19T04:45:09.301Z,13.9
2016-08-19T04:45:33.486Z,14
2016-08-19T04:45:57.634Z,14
2016-08-19T04:46:21.761Z,14
2016-08-19T04:46:45.911Z,14
2016-08-19T04:47:10.108Z,14
2016-08-19T04:47:34.273Z,14.1
2016-08-19T04:47:58.470Z,14
2016-08-19T04:48:22.628Z,14.1
2016-08-19T04:48:46.747Z,14
2016-08-19T04:49:10.875Z,14
2016-08-19T04:49:35.031Z,14.1
2016-08-19T04:49:59.188Z,14.1
2016-08-19T04:50:23.309Z,14.2
2016-08-19T04:50:47.426Z,14.2
2016-08-19T04:51:11.551Z,14.1
2016-08-19T04:51:35.749Z,14.1
2016-08-19T04:51:59.858Z,14.1
2016-08-19T04:52:24.007Z,14.1
2016-08-19T04:52:48.111Z,14.1
2016-08-19T04:53:12.227Z,14.1
2016-08-19T04:53:36.372Z,14.2
2016-08-19T04:54:00.529Z,14
2016-08-19T04:54:24.685Z,14
2016-08-19T04:54:48.843Z,14.2
2016-08-19T04:55:12.963Z,14.2
2016-08-19T04:55:37.091Z,14.2
2016-08-19T04:56:01.303Z,14.2
2016-08-19T04:56:25.428Z,14.2
2016-08-19T04:56:49.554Z,14.2
2016-08-19T04:57:13.743Z,14.2
2016-08-19T04:57:37.881Z,14.2
2016-08-19T04:58:01.995Z,14.2
2016-08-19T04:58:26.151Z,14.2
2016-08-19T04:58:50.268Z,14.2
2016-08-19T04:59:14.397Z,14.3
2016-08-19T04:59:38.556Z,14.3
2016-08-19T05:00:02.695Z,14.2
2016-08-19T05:00:26.832Z,14.2
2016-08-19T05:00:50.977Z,14.3
2016-08-19T05:01:15.100Z,14.3
2016-08-19T05:01:39.217Z,14.4
2016-08-19T05:02:03.342Z,14.3
2016-08-19T05:02:27.448Z,14.3
2016-08-19T05:02:51.555Z,14.4
2016-08-19T05:03:15.665Z,14.4
2016-08-19T05:03:39.838Z,14.4
2016-08-19T05:04:03.981Z,14.4
2016-08-19T05:04:28.129Z,14.4
2016-08-19T05:04:52.253Z,14.4
2016-08-19T05:05:16.379Z,14.4
2016-08-19T05:05:40.579Z,14.5
2016-08-19T05:06:04.714Z,14.5
2016-08-19T05:06:28.852Z,14.6
2016-08-19T05:06:52.981Z,14.6
2016-08-19T05:07:17.146Z,14.5
2016-08-19T05:07:41.457Z,14.5
2016-08-19T05:08:05.746Z,14.5
2016-08-19T05:08:29.920Z,14.5
2016-08-19T05:08:54.067Z,14.6
2016-08-19T05:09:18.215Z,14.6
2016-08-19T05:09:42.315Z,14.6
2016-08-19T05:10:06.434Z,14.5
2016-08-19T05:10:30.575Z,14.6
2016-08-19T05:10:54.679Z,14.6
2016-08-19T05:11:18.821Z,14.6
2016-08-19T05:11:42.975Z,14.7
2016-08-19T05:12:07.140Z,14.6
2016-08-19T05:12:31.289Z,14.5
2016-08-19T05:12:55.409Z,14.6
2016-08-19T05:13:19.546Z,14.6
2016-08-19T05:13:43.656Z,14.6
2016-08-19T05:14:07.782Z,14.6
2016-08-19T05:14:31.871Z,14.6
2016-08-19T05:14:55.985Z,14.7
2016-08-19T05:15:20.094Z,14.6
2016-08-19T05:15:44.250Z,14.7
2016-08-19T05:16:08.392Z,14.6
2016-08-19T05:16:32.520Z,14.7
2016-08-19T05:16:56.667Z,14.6
2016-08-19T05:17:20.811Z,14.7
2016-08-19T05:17:44.984Z,14.7
2016-08-19T05:18:09.102Z,14.7
2016-08-19T05:18:33.222Z,14.7
2016-08-19T05:18:57.366Z,14.7
2016-08-19T05:19:21.491Z,14.7
2016-08-19T05:19:45.613Z,14.7
2016-08-19T05:20:09.746Z,14.7
2016-08-19T05:20:33.891Z,14.8
2016-08-19T05:20:57.983Z,14.7
2016-08-19T05:21:22.130Z,14.7
2016-08-19T05:21:46.286Z,14.8
2016-08-19T05:22:10.423Z,14.7
2016-08-19T05:22:34.536Z,14.8
2016-08-19T05:22:58.641Z,14.8